createdAt,value
2023-01-24T00:01:51.281Z,100.00
2023-01-24T00:06:52.825Z,100.00
2023-01-24T00:11:54.350Z,100.00
2023-01-24T00:16:55.931Z,100.00
2023-01-24T00:21:57.476Z,100.00
2023-01-24T00:26:59.041Z,100.00
2023-01-24T00:32:00.770Z,100.00
2023-01-24T00:37:02.418Z,100.00
2023-01-24T00:42:04.052Z,100.00
2023-01-24T00:47:05.635Z,100.00
2023-01-24T00:52:07.267Z,100.00
2023-01-24T00:57:08.967Z,100.00
2023-01-24T01:02:10.600Z,100.00
2023-01-24T01:07:12.241Z,100.00
2023-01-24T01:12:13.797Z,100.00
2023-01-24T01:17:15.891Z,100.00
2023-01-24T01:22:17.602Z,100.00
2023-01-24T01:27:19.152Z,100.00
2023-01-24T01:32:20.749Z,100.00
2023-01-24T01:37:22.333Z,100.00
2023-01-24T01:42:23.859Z,100.00
2023-01-24T01:47:36.871Z,100.00
2023-01-24T01:52:42.678Z,100.00
2023-01-24T01:57:45.348Z,100.00
2023-01-24T02:03:21.397Z,100.00
2023-01-24T02:08:25.214Z,100.00
2023-01-24T02:13:26.811Z,100.00
2023-01-24T02:18:29.186Z,100.00
2023-01-24T02:23:47.639Z,100.00
2023-01-24T02:28:56.372Z,100.00
2023-01-24T02:33:57.992Z,100.00
2023-01-24T02:39:03.163Z,100.00
2023-01-24T02:44:10.489Z,100.00
2023-01-24T02:49:13.014Z,100.00
2023-01-24T02:54:14.523Z,100.00
2023-01-24T02:59:16.082Z,100.00
2023-01-24T03:04:21.057Z,100.00
2023-01-24T03:09:39.663Z,100.00
2023-01-24T03:15:00.889Z,100.00
2023-01-24T04:50:36.349Z,100.00
2023-01-24T04:55:38.008Z,100.00
2023-01-24T05:00:39.640Z,100.00
2023-01-24T05:05:43.863Z,100.00
2023-01-24T05:10:45.935Z,100.00
2023-01-24T05:15:49.325Z,100.00
2023-01-24T05:20:53.434Z,100.00
2023-01-24T05:25:59.699Z,100.00
2023-01-24T05:31:04.980Z,100.00
2023-01-24T05:36:15.613Z,100.00
2023-01-24T05:41:20.339Z,100.00
2023-01-24T05:46:24.795Z,100.00
2023-01-24T05:51:49.123Z,100.00
2023-01-24T05:56:58.718Z,100.00
2023-01-24T06:02:04.610Z,100.00
2023-01-24T06:07:06.515Z,100.00
2023-01-24T06:12:08.141Z,100.00
2023-01-24T06:17:09.861Z,100.00
2023-01-24T06:22:40.019Z,100.00
2023-01-24T06:27:42.008Z,100.00
2023-01-24T06:32:56.037Z,100.00
2023-01-24T06:37:59.167Z,100.00
2023-01-24T06:43:01.007Z,100.00
2023-01-24T06:48:03.836Z,100.00
2023-01-24T06:53:05.529Z,100.00
2023-01-24T06:58:07.040Z,100.00
2023-01-24T07:03:09.469Z,100.00
2023-01-24T07:08:11.217Z,100.00
2023-01-24T07:13:12.767Z,100.00
2023-01-24T07:18:16.314Z,100.00
2023-01-24T07:23:21.218Z,100.00
2023-01-24T07:28:22.764Z,100.00
2023-01-24T07:33:24.419Z,100.00
2023-01-24T07:38:26.037Z,100.00
2023-01-24T07:43:27.614Z,100.00
2023-01-24T07:48:29.143Z,100.00
2023-01-24T07:53:30.911Z,100.00
2023-01-24T07:58:32.604Z,100.00
2023-01-24T08:03:34.627Z,100.00
2023-01-24T08:08:36.189Z,100.00
2023-01-24T08:13:38.085Z,100.00
2023-01-24T08:18:40.379Z,100.00
2023-01-24T08:23:42.125Z,100.00
2023-01-24T08:28:43.691Z,100.00
2023-01-24T08:33:47.359Z,100.00
2023-01-24T08:38:48.913Z,100.00
2023-01-24T08:43:53.152Z,100.00
2023-01-24T08:48:54.777Z,100.00
2023-01-24T08:53:56.277Z,100.00
2023-01-24T08:59:01.380Z,100.00
2023-01-24T09:04:04.125Z,100.00
2023-01-24T09:09:06.550Z,100.00
2023-01-24T09:14:08.086Z,100.00
2023-01-24T09:19:12.353Z,100.00
2023-01-24T09:24:13.951Z,100.00
2023-01-24T09:29:15.631Z,100.00
2023-01-24T09:34:17.355Z,100.00
2023-01-24T09:39:18.859Z,100.00
2023-01-24T09:44:30.879Z,100.00
2023-01-24T09:49:41.838Z,100.00
2023-01-24T09:54:59.098Z,100.00
2023-01-24T10:00:18.784Z,100.00
2023-01-24T10:05:21.062Z,100.00
2023-01-24T10:10:41.895Z,100.00
2023-01-24T10:16:09.597Z,100.00
2023-01-24T10:21:20.184Z,100.00
2023-01-24T10:26:27.829Z,100.00
2023-01-24T10:31:32.563Z,100.00
2023-01-24T10:36:45.852Z,100.00
2023-01-24T10:41:47.547Z,100.00
2023-01-24T10:47:19.578Z,100.00
2023-01-24T10:52:22.279Z,100.00
2023-01-24T10:57:29.615Z,100.00
2023-01-24T11:02:32.029Z,100.00
2023-01-24T11:07:41.794Z,100.00
2023-01-24T11:12:48.239Z,100.00
2023-01-24T11:17:55.423Z,100.00
2023-01-24T11:23:16.917Z,100.00
2023-01-24T11:28:29.047Z,100.00
2023-01-24T11:33:49.120Z,100.00
2023-01-24T11:38:54.425Z,100.00
2023-01-24T11:44:14.730Z,99.77
2023-01-24T11:49:25.833Z,100.00
2023-01-24T11:55:13.546Z,99.12
2023-01-24T12:00:32.977Z,99.34
2023-01-24T12:06:06.598Z,99.12
2023-01-24T12:11:35.282Z,99.75
2023-01-24T12:16:51.647Z,99.41
2023-01-24T12:21:58.992Z,99.80
2023-01-24T12:27:06.785Z,100.00
2023-01-24T12:32:26.792Z,100.00
2023-01-24T12:37:44.242Z,99.32
2023-01-24T12:43:07.770Z,99.92
2023-01-24T12:48:38.150Z,100.00
2023-01-24T12:53:42.763Z,99.71
2023-01-24T12:58:49.578Z,99.68
2023-01-24T13:04:01.778Z,99.27
2023-01-24T13:09:12.279Z,99.01
2023-01-24T13:14:38.663Z,99.06
2023-01-24T13:20:08.154Z,99.30
2023-01-24T13:25:47.495Z,98.88
2023-01-24T13:31:07.122Z,99.10
2023-01-24T13:36:09.625Z,99.10
2023-01-24T13:41:17.014Z,100.00
2023-01-24T13:46:18.695Z,100.00
2023-01-24T13:51:23.254Z,99.63
2023-01-24T13:56:24.819Z,99.88
2023-01-24T14:01:27.651Z,100.00
2023-01-24T14:06:41.908Z,99.89
2023-01-24T14:11:56.494Z,99.70
2023-01-24T14:17:01.235Z,99.50
2023-01-24T14:22:11.790Z,100.00
2023-01-24T14:27:16.422Z,99.94
2023-01-24T14:32:35.278Z,99.35
2023-01-24T14:37:37.075Z,99.35
2023-01-24T14:42:39.146Z,98.91
2023-01-24T14:47:42.030Z,99.28
2023-01-24T14:52:43.549Z,99.73
2023-01-24T14:57:45.289Z,99.28
2023-01-24T15:02:59.477Z,99.61
2023-01-24T15:08:02.783Z,99.58
2023-01-24T15:13:08.591Z,99.86
2023-01-24T15:18:36.874Z,100.00
2023-01-24T15:23:38.594Z,100.00
2023-01-24T15:28:42.458Z,100.00
2023-01-24T15:33:45.036Z,100.00
2023-01-24T15:38:54.053Z,100.00
2023-01-24T15:44:08.181Z,100.00
2023-01-24T15:49:31.520Z,100.00
2023-01-24T15:54:42.248Z,100.00
2023-01-24T15:59:46.653Z,100.00
2023-01-24T16:04:48.876Z,100.00
2023-01-24T16:09:50.623Z,100.00
2023-01-24T16:15:08.261Z,100.00
2023-01-24T16:20:16.849Z,100.00
2023-01-24T16:25:20.325Z,100.00
2023-01-24T16:30:24.613Z,100.00
2023-01-24T16:35:26.384Z,100.00
2023-01-24T16:40:27.940Z,100.00
2023-01-24T16:45:29.586Z,100.00
2023-01-24T16:50:32.953Z,100.00
2023-01-24T16:55:35.928Z,100.00
2023-01-24T17:00:37.990Z,100.00
2023-01-24T17:05:40.726Z,100.00
2023-01-24T17:10:42.915Z,100.00
2023-01-24T17:15:44.493Z,100.00
2023-01-24T17:20:46.086Z,100.00
2023-01-24T17:25:47.602Z,100.00
2023-01-24T17:30:49.133Z,100.00
2023-01-24T17:35:50.900Z,100.00
2023-01-24T17:40:52.993Z,100.00
2023-01-24T17:46:00.306Z,100.00
2023-01-24T17:51:28.509Z,100.00
2023-01-24T17:56:30.166Z,100.00
2023-01-24T18:01:31.842Z,100.00
2023-01-24T18:06:34.229Z,100.00
2023-01-24T18:11:37.283Z,100.00
2023-01-24T18:16:38.909Z,100.00
2023-01-24T18:21:42.077Z,100.00
2023-01-24T18:26:43.980Z,100.00
2023-01-24T18:31:47.629Z,100.00
2023-01-24T18:36:49.414Z,100.00
2023-01-24T18:41:50.997Z,100.00
2023-01-24T18:46:52.572Z,100.00
2023-01-24T18:51:54.149Z,100.00
2023-01-24T18:56:55.660Z,100.00
2023-01-24T19:01:58.205Z,100.00
2023-01-24T19:07:02.918Z,100.00
2023-01-24T19:12:04.931Z,100.00
2023-01-24T19:17:08.831Z,100.00
2023-01-24T19:22:10.836Z,100.00
2023-01-24T19:27:12.358Z,100.00
2023-01-24T19:32:13.893Z,100.00
2023-01-24T19:37:15.448Z,100.00
2023-01-24T19:42:16.975Z,100.00
2023-01-24T19:47:18.482Z,100.00
2023-01-24T19:52:19.988Z,100.00
2023-01-24T19:57:23.383Z,100.00
2023-01-24T20:02:25.544Z,100.00
2023-01-24T20:07:27.488Z,100.00
2023-01-24T20:12:29.483Z,100.00
2023-01-24T20:17:31.139Z,100.00
2023-01-24T20:22:32.761Z,100.00
2023-01-24T20:27:34.351Z,100.00
2023-01-24T20:32:36.331Z,100.00
2023-01-24T20:37:37.956Z,100.00
2023-01-24T20:42:41.935Z,100.00
2023-01-24T20:47:43.564Z,100.00
2023-01-24T20:52:45.125Z,100.00
2023-01-24T20:57:46.634Z,100.00
2023-01-24T21:02:52.034Z,100.00
2023-01-24T21:07:53.633Z,100.00
2023-01-24T21:12:55.207Z,100.00
2023-01-24T21:17:56.789Z,100.00
2023-01-24T21:22:58.340Z,100.00
2023-01-24T21:27:59.856Z,100.00
2023-01-24T21:33:01.435Z,100.00
2023-01-24T21:38:03.104Z,100.00
2023-01-24T21:43:04.623Z,100.00
2023-01-24T21:48:06.420Z,100.00
2023-01-24T21:53:27.904Z,100.00
2023-01-24T21:58:29.455Z,100.00
2023-01-24T22:03:30.957Z,100.00
2023-01-24T22:08:33.343Z,100.00
2023-01-24T22:13:34.869Z,100.00
2023-01-24T22:18:36.761Z,100.00
2023-01-24T22:23:49.011Z,100.00
2023-01-24T22:28:50.797Z,100.00
2023-01-24T22:33:52.561Z,100.00
2023-01-24T22:38:54.089Z,100.00
2023-01-24T22:43:55.659Z,100.00
2023-01-24T22:48:57.193Z,100.00
2023-01-24T22:53:58.735Z,100.00
2023-01-24T22:59:00.274Z,100.00
2023-01-24T23:04:06.196Z,100.00
2023-01-24T23:09:07.736Z,100.00
2023-01-24T23:14:33.087Z,100.00
2023-01-24T23:20:01.914Z,100.00
2023-01-24T23:25:06.534Z,100.00
2023-01-24T23:30:14.207Z,100.00
2023-01-24T23:35:15.990Z,100.00
2023-01-24T23:40:18.225Z,100.00
2023-01-24T23:45:20.464Z,100.00
2023-01-24T23:50:24.392Z,100.00
2023-01-24T23:55:25.971Z,100.00
